createdAt,value
2022-12-17T00:04:34.253Z,9.37
2022-12-17T00:09:56.720Z,10.43
2022-12-17T00:15:17.641Z,10.47
2022-12-17T00:20:38.998Z,12.67
2022-12-17T00:26:01.554Z,11.07
2022-12-17T00:31:23.017Z,11.67
2022-12-17T00:36:54.497Z,12.13
2022-12-17T00:42:18.152Z,11.23
2022-12-17T00:47:38.931Z,12.37
2022-12-17T00:52:56.484Z,13.97
2022-12-17T00:58:18.933Z,16.03
2022-12-17T01:03:39.969Z,13.47
2022-12-17T01:09:01.294Z,12.57
2022-12-17T01:14:23.737Z,14.00
2022-12-17T01:19:44.859Z,12.40
2022-12-17T01:25:06.019Z,10.60
2022-12-17T01:30:29.574Z,16.93
2022-12-17T01:35:50.868Z,11.67
2022-12-17T01:41:12.230Z,15.87
2022-12-17T01:46:34.711Z,17.33
2022-12-17T01:51:55.567Z,13.93
2022-12-17T01:57:19.547Z,12.80
2022-12-17T02:02:42.365Z,11.17
2022-12-17T02:08:17.070Z,14.43
2022-12-17T02:13:40.565Z,14.70
2022-12-17T02:19:10.624Z,15.20
2022-12-17T02:24:38.464Z,15.73
2022-12-17T02:30:03.805Z,18.43
2022-12-17T02:35:33.818Z,12.93
2022-12-17T02:41:11.263Z,14.03
2022-12-17T02:46:37.066Z,12.50
2022-12-17T02:51:59.322Z,11.23
2022-12-17T02:57:20.698Z,8.83
2022-12-17T03:02:43.454Z,16.07
2022-12-17T03:08:08.681Z,11.37
2022-12-17T03:13:39.872Z,13.97
2022-12-17T03:19:02.965Z,13.37
2022-12-17T03:24:24.772Z,11.77
2022-12-17T03:29:45.645Z,10.23
2022-12-17T03:35:08.240Z,9.50
2022-12-17T03:40:29.873Z,12.97
2022-12-17T03:45:50.892Z,11.53
2022-12-17T03:51:14.070Z,12.50
2022-12-17T03:56:35.159Z,10.37
2022-12-17T04:01:55.900Z,8.50
2022-12-17T04:07:18.137Z,7.60
2022-12-17T04:12:39.088Z,8.50
2022-12-17T04:17:59.989Z,10.73
2022-12-17T04:23:23.630Z,14.77
2022-12-17T04:28:44.402Z,11.93
2022-12-17T04:34:05.467Z,13.93
2022-12-17T04:39:30.214Z,15.43
2022-12-17T04:44:51.317Z,11.63
2022-12-17T04:50:12.451Z,12.70
2022-12-17T04:55:34.812Z,15.67
2022-12-17T05:00:56.858Z,12.77
2022-12-17T05:06:18.640Z,14.37
2022-12-17T05:11:41.029Z,10.57
2022-12-17T05:17:01.826Z,11.73
2022-12-17T05:22:31.644Z,14.17
2022-12-17T05:27:53.922Z,12.63
2022-12-17T05:33:19.182Z,13.60
2022-12-17T05:38:40.129Z,13.60
2022-12-17T05:44:02.788Z,14.33
2022-12-17T05:49:27.138Z,13.13
2022-12-17T05:54:48.027Z,16.63
2022-12-17T06:00:10.426Z,17.13
2022-12-17T06:05:34.441Z,12.80
2022-12-17T06:10:55.533Z,12.43
2022-12-17T06:16:17.834Z,11.57
2022-12-17T06:21:39.485Z,15.63
2022-12-17T06:27:00.572Z,13.00
2022-12-17T06:32:28.645Z,11.67
2022-12-17T06:37:49.885Z,14.30
2022-12-17T06:43:12.144Z,19.50
2022-12-17T06:48:34.536Z,10.93
2022-12-17T06:53:55.548Z,12.00
2022-12-17T06:59:16.761Z,12.33
2022-12-17T07:04:39.494Z,10.90
2022-12-17T07:10:00.952Z,12.93
2022-12-17T07:15:22.166Z,13.43
2022-12-17T07:20:44.702Z,13.67
2022-12-17T07:26:05.498Z,15.10
2022-12-17T07:31:26.882Z,15.90
2022-12-17T07:36:49.484Z,16.60
2022-12-17T07:42:10.315Z,15.53
2022-12-17T07:47:31.243Z,14.33
2022-12-17T07:52:53.467Z,15.00
2022-12-17T07:58:18.456Z,13.33
2022-12-17T08:03:40.142Z,13.83
2022-12-17T08:09:02.862Z,11.97
2022-12-17T08:14:23.830Z,10.40
2022-12-17T08:19:44.709Z,17.50
2022-12-17T08:25:07.287Z,16.30
2022-12-17T08:30:25.848Z,11.13
2022-12-17T08:35:46.857Z,11.17
2022-12-17T08:41:09.508Z,13.30
2022-12-17T08:46:30.579Z,13.53
2022-12-17T08:51:51.746Z,12.27
2022-12-17T08:57:27.034Z,12.10
2022-12-17T09:02:52.207Z,10.83
2022-12-17T09:08:17.935Z,11.87
2022-12-17T09:13:43.035Z,13.73
2022-12-17T09:19:04.110Z,10.10
2022-12-17T09:24:29.020Z,13.13
2022-12-17T09:29:51.672Z,14.27
2022-12-17T09:35:13.111Z,11.97
2022-12-17T09:40:36.931Z,13.53
2022-12-17T09:46:09.493Z,13.20
2022-12-17T09:51:40.050Z,11.50
2022-12-17T09:57:02.450Z,12.77
2022-12-17T10:02:31.871Z,12.97
2022-12-17T10:08:07.893Z,10.37
2022-12-17T10:13:34.750Z,12.83
2022-12-17T10:19:00.518Z,12.93
2022-12-17T10:24:25.709Z,15.67
2022-12-17T10:29:50.384Z,16.37
2022-12-17T10:35:13.420Z,14.37
2022-12-17T10:40:42.880Z,10.30
2022-12-17T10:46:18.364Z,12.27
2022-12-17T10:51:51.004Z,12.83
2022-12-17T10:57:14.244Z,15.10
2022-12-17T11:02:49.764Z,9.77
2022-12-17T11:08:12.320Z,11.60
2022-12-17T11:13:40.640Z,12.70
2022-12-17T11:19:10.517Z,10.77
2022-12-17T11:24:39.497Z,9.10
2022-12-17T11:30:00.477Z,8.10
2022-12-17T11:35:27.084Z,7.73
2022-12-17T11:40:55.491Z,10.50
2022-12-17T11:46:28.162Z,9.57
2022-12-17T11:51:56.397Z,9.63
2022-12-17T11:57:26.648Z,7.73
2022-12-17T12:03:01.979Z,11.30
2022-12-17T12:08:31.402Z,13.10
2022-12-17T12:14:00.086Z,11.17
2022-12-17T12:19:31.850Z,12.50
2022-12-17T12:25:27.133Z,12.90
2022-12-17T12:30:58.080Z,10.93
2022-12-17T12:36:21.997Z,11.90
2022-12-17T12:41:49.095Z,10.23
2022-12-17T12:47:17.241Z,10.43
2022-12-17T12:52:42.430Z,10.67
2022-12-17T12:58:18.371Z,11.73
2022-12-17T13:03:45.350Z,10.43
2022-12-17T13:08:51.677Z,9.07
2022-12-17T13:13:59.502Z,11.00
2022-12-17T13:19:18.221Z,10.77
2022-12-17T13:24:26.835Z,13.87
2022-12-17T13:29:34.544Z,10.47
2022-12-17T13:34:52.968Z,12.40
2022-12-17T13:40:07.022Z,12.77
2022-12-17T13:45:16.999Z,9.93
2022-12-17T13:50:33.938Z,9.93
2022-12-17T13:55:39.796Z,8.53
2022-12-17T14:00:43.487Z,11.10
2022-12-17T14:05:48.786Z,8.63
2022-12-17T14:11:14.831Z,10.63
2022-12-17T14:16:20.421Z,10.13
2022-12-17T14:21:27.219Z,10.63
2022-12-17T14:26:30.940Z,13.47
2022-12-17T14:31:34.885Z,11.47
2022-12-17T14:36:41.728Z,11.90
2022-12-17T14:42:03.108Z,11.27
2022-12-17T14:47:20.126Z,8.63
2022-12-17T14:52:31.814Z,8.33
2022-12-17T14:57:35.427Z,10.17
2022-12-17T15:02:39.242Z,9.10
2022-12-17T15:07:44.553Z,9.33
2022-12-17T15:12:48.765Z,10.13
2022-12-17T15:17:52.374Z,12.03
2022-12-17T15:22:57.590Z,9.67
2022-12-17T15:28:01.350Z,10.33
2022-12-17T15:33:06.461Z,8.10
2022-12-17T15:38:12.784Z,9.43
2022-12-17T15:43:16.466Z,9.50
2022-12-17T15:48:21.744Z,9.57
2022-12-17T15:53:26.694Z,9.47
2022-12-17T15:58:30.515Z,9.07
2022-12-17T16:03:34.307Z,6.13
2022-12-17T16:08:41.444Z,7.67
2022-12-17T16:13:45.065Z,9.77
2022-12-17T16:18:48.632Z,7.80
2022-12-17T16:23:53.597Z,6.73
2022-12-17T16:28:58.728Z,7.90
2022-12-17T16:34:02.347Z,8.10
2022-12-17T16:39:07.661Z,7.83
2022-12-17T16:44:11.269Z,10.07
2022-12-17T16:49:16.770Z,6.67
2022-12-17T16:54:23.132Z,5.80
2022-12-17T16:59:26.754Z,6.63
2022-12-17T17:04:30.314Z,8.63
2022-12-17T17:09:35.418Z,7.77
2022-12-17T17:14:40.241Z,7.97
2022-12-17T17:19:43.935Z,5.13
2022-12-17T17:24:48.842Z,4.70
2022-12-17T17:29:52.550Z,9.43
2022-12-17T17:34:56.340Z,9.83
2022-12-17T17:40:01.999Z,9.07
2022-12-17T17:45:06.938Z,11.70
2022-12-17T17:50:11.155Z,12.40
2022-12-17T17:55:16.402Z,15.83
2022-12-17T18:00:20.225Z,13.63
2022-12-17T18:05:23.891Z,10.23
2022-12-17T18:10:29.068Z,10.93
2022-12-17T18:15:32.592Z,11.00
2022-12-17T18:20:36.111Z,12.83
2022-12-17T18:25:41.388Z,12.37
2022-12-17T18:30:45.005Z,11.73
2022-12-17T18:35:48.618Z,11.67
2022-12-17T18:40:53.589Z,12.33
2022-12-17T18:45:57.260Z,12.10
2022-12-17T18:51:06.437Z,12.20
2022-12-17T18:56:16.646Z,9.67
2022-12-17T19:01:32.385Z,9.37
2022-12-17T19:06:37.674Z,10.03
2022-12-17T19:11:43.751Z,9.67
2022-12-17T19:16:47.469Z,10.20
2022-12-17T19:21:51.935Z,11.23
2022-12-17T19:26:58.013Z,8.17
2022-12-17T19:32:01.782Z,9.00
2022-12-17T19:37:05.937Z,9.23
2022-12-17T19:42:24.736Z,8.00
2022-12-17T19:47:30.485Z,11.50
2022-12-17T19:52:34.617Z,9.20
2022-12-17T19:57:39.696Z,8.70
2022-12-17T20:02:43.482Z,7.70
2022-12-17T20:07:47.328Z,10.63
2022-12-17T20:12:52.328Z,9.63
2022-12-17T20:17:55.924Z,10.17
2022-12-17T20:22:59.451Z,9.83
2022-12-17T20:28:04.695Z,9.10
2022-12-17T20:33:08.329Z,7.07
2022-12-17T20:38:12.022Z,9.67
2022-12-17T20:43:17.266Z,8.70
2022-12-17T20:48:20.912Z,9.07
2022-12-17T20:53:24.436Z,8.80
2022-12-17T20:58:29.483Z,8.30
2022-12-17T21:03:33.154Z,6.03
2022-12-17T21:08:37.335Z,5.27
2022-12-17T21:13:42.905Z,7.47
2022-12-17T21:18:46.637Z,7.70
2022-12-17T21:23:51.374Z,9.63
2022-12-17T21:29:01.994Z,9.07
2022-12-17T21:34:07.388Z,10.07
2022-12-17T21:39:13.231Z,11.03
2022-12-17T21:44:18.275Z,11.47
2022-12-17T21:49:21.845Z,12.20
2022-12-17T21:54:25.859Z,12.03
2022-12-17T21:59:31.158Z,8.37
2022-12-17T22:04:35.185Z,8.70
2022-12-17T22:09:59.614Z,9.90
2022-12-17T22:15:04.461Z,8.57
2022-12-17T22:20:10.151Z,10.63
2022-12-17T22:25:15.108Z,9.50
2022-12-17T22:30:37.732Z,8.23
2022-12-17T22:37:23.671Z,7.93
2022-12-17T22:44:36.168Z,8.33
2022-12-17T22:46:33.285Z,9.50
2022-12-17T22:51:49.010Z,8.20
2022-12-17T22:57:21.728Z,8.50
2022-12-17T23:02:21.814Z,9.07
2022-12-17T23:07:30.028Z,9.83
2022-12-17T23:12:54.116Z,6.97
2022-12-17T23:18:01.541Z,8.17
2022-12-17T23:23:05.363Z,8.63
2022-12-17T23:28:09.013Z,8.97
2022-12-17T23:33:13.916Z,6.83
2022-12-17T23:38:17.638Z,6.37
2022-12-17T23:43:21.294Z,8.63
2022-12-17T23:48:26.276Z,6.30
2022-12-17T23:53:32.871Z,7.50
2022-12-17T23:58:37.589Z,8.30
